Time;durP1;ratioP1;P1;durP2;ratioP2;P2;SDS_P1;SDS_P2;PMS_P1;PMS_P2;Temp;Humidity;BMP_temperature;BMP_pressure;BME280_temperature;BME280_humidity;BME280_pressure;Samples;Min_cycle;Max_cycle;Signal;HPM_P1;HPM_P2
2022/11/02 00:01:30;;;;;;;7.95;1.60;;;12.80;99.90;;;;;;5023990;28;20044;-63
2022/11/02 00:03:56;;;;;;;5.30;1.58;;;12.70;99.90;;;;;;5023748;28;20053;-63
2022/11/02 00:06:22;;;;;;;8.98;1.73;;;12.70;99.90;;;;;;5023282;28;20033;-63
2022/11/02 00:08:47;;;;;;;10.38;2.15;;;12.70;99.90;;;;;;5016327;28;20033;-63
2022/11/02 00:11:13;;;;;;;10.15;1.75;;;12.70;99.90;;;;;;5024253;28;20100;-63
2022/11/02 00:13:38;;;;;;;7.15;1.52;;;12.70;99.90;;;;;;5018653;28;20037;-63
2022/11/02 00:16:08;;;;;;;9.77;2.10;;;12.70;99.90;;;;;;5018896;28;20383;-63
2022/11/02 00:18:35;;;;;;;7.68;1.63;;;12.70;99.90;;;;;;5024872;28;20050;-63
2022/11/02 00:21:02;;;;;;;7.25;1.80;;;12.70;99.90;;;;;;5026731;28;20037;-63
2022/11/02 00:23:28;;;;;;;8.25;1.70;;;12.70;99.90;;;;;;5018607;28;20042;-63
2022/11/02 00:25:55;;;;;;;7.65;1.60;;;12.70;99.90;;;;;;5025524;28;20041;-63
2022/11/02 00:28:21;;;;;;;7.18;1.73;;;12.60;99.90;;;;;;5027503;28;20124;-64
2022/11/02 00:30:47;;;;;;;5.80;1.52;;;12.70;99.90;;;;;;5029855;28;20117;-63
2022/11/02 00:33:12;;;;;;;12.02;2.03;;;12.70;99.90;;;;;;5022818;28;20511;-64
2022/11/02 00:35:39;;;;;;;7.63;2.53;;;12.70;99.90;;;;;;5032011;28;20128;-62
2022/11/02 00:38:05;;;;;;;10.27;1.83;;;12.70;99.90;;;;;;5031959;28;20465;-63
2022/11/02 00:40:31;;;;;;;9.63;2.10;;;12.60;99.90;;;;;;5023502;28;20057;-63
2022/11/02 00:42:57;;;;;;;9.95;2.15;;;12.60;99.90;;;;;;5029316;28;20045;-63
2022/11/02 00:45:22;;;;;;;7.45;2.03;;;12.60;99.90;;;;;;5026130;28;20441;-64
2022/11/02 00:47:49;;;;;;;9.43;1.90;;;12.50;99.90;;;;;;5021957;28;20041;-63
2022/11/02 00:50:14;;;;;;;6.15;2.08;;;12.50;99.90;;;;;;5025356;28;20854;-63
2022/11/02 00:52:41;;;;;;;8.35;1.95;;;12.50;99.90;;;;;;5025302;28;20045;-63
2022/11/02 00:55:08;;;;;;;10.75;2.15;;;12.50;99.90;;;;;;5019214;28;20041;-63
2022/11/02 00:57:34;;;;;;;13.48;2.45;;;12.50;99.90;;;;;;5032901;28;20117;-64
2022/11/02 01:00:00;;;;;;;14.40;2.67;;;12.50;99.90;;;;;;5029086;28;20081;-63
2022/11/02 01:02:26;;;;;;;10.15;2.13;;;12.40;99.90;;;;;;5020881;28;20107;-64
2022/11/02 01:04:51;;;;;;;10.30;2.38;;;12.50;99.90;;;;;;5021852;28;20058;-63
2022/11/02 01:07:17;;;;;;;6.60;1.95;;;12.50;99.90;;;;;;5019199;28;20044;-64
2022/11/02 01:09:43;;;;;;;10.82;2.50;;;12.40;99.90;;;;;;5021866;28;20064;-64
2022/11/02 01:12:09;;;;;;;11.30;2.58;;;12.40;99.90;;;;;;5028762;28;20125;-64
2022/11/02 01:14:36;;;;;;;9.57;2.15;;;12.40;99.90;;;;;;5026893;28;20136;-64
2022/11/02 01:17:03;;;;;;;8.82;2.22;;;12.40;99.90;;;;;;5031637;28;20048;-64
2022/11/02 01:19:28;;;;;;;13.88;2.55;;;12.40;99.90;;;;;;5028586;28;20033;-64
2022/11/02 01:21:54;;;;;;;10.77;2.60;;;12.30;99.90;;;;;;5031307;28;20043;-64
2022/11/02 01:24:19;;;;;;;13.00;2.95;;;12.30;99.90;;;;;;5025890;28;20551;-64
2022/11/02 01:26:50;;;;;;;10.13;2.20;;;12.30;99.90;;;;;;5032053;28;20033;-64
2022/11/02 01:29:16;;;;;;;8.20;2.15;;;12.30;99.90;;;;;;5023273;28;20052;-64
2022/11/02 01:31:41;;;;;;;12.05;2.47;;;12.30;99.90;;;;;;5033429;28;20034;-64
2022/11/02 01:34:07;;;;;;;12.43;2.40;;;12.30;99.90;;;;;;5023335;28;20037;-64
2022/11/02 01:36:32;;;;;;;9.30;2.30;;;12.20;99.90;;;;;;5027997;28;20495;-64
2022/11/02 01:38:58;;;;;;;12.38;2.22;;;12.20;99.90;;;;;;5028716;28;20033;-64
2022/11/02 01:41:23;;;;;;;5.55;1.88;;;12.20;99.90;;;;;;5019389;28;20477;-65
2022/11/02 01:43:54;;;;;;;11.43;2.38;;;12.30;99.90;;;;;;5022590;28;20080;-64
2022/11/02 01:46:23;;;;;;;11.07;2.45;;;12.20;99.90;;;;;;5023786;28;20041;-64
2022/11/02 01:49:04;;;;;;;10.02;2.70;;;12.30;99.90;;;;;;5024798;28;20041;-62
2022/11/02 01:51:33;;;;;;;9.55;2.10;;;12.20;99.90;;;;;;5039545;28;20068;-64
2022/11/02 01:54:10;;;;;;;8.60;2.58;;;12.20;99.90;;;;;;5031040;28;20515;-64
2022/11/02 01:56:38;;;;;;;9.70;2.40;;;12.20;99.90;;;;;;5029347;28;20491;-64
2022/11/02 01:59:10;;;;;;;8.82;2.50;;;12.20;99.90;;;;;;5027108;28;20038;-64
2022/11/02 02:01:36;;;;;;;12.25;2.45;;;12.30;99.90;;;;;;5028348;28;20095;-65
2022/11/02 02:04:01;;;;;;;11.13;2.67;;;12.30;99.90;;;;;;5028773;28;20497;-62
2022/11/02 02:06:28;;;;;;;13.75;2.58;;;12.30;99.90;;;;;;5028715;28;20046;-64
2022/11/02 02:08:57;;;;;;;8.80;2.42;;;12.30;99.90;;;;;;5031134;28;20041;-64
2022/11/02 02:11:26;;;;;;;14.23;2.90;;;12.40;99.90;;;;;;5025422;28;20061;-65
2022/11/02 02:14:05;;;;;;;10.80;2.55;;;12.40;99.90;;;;;;5024035;28;20127;-63
2022/11/02 02:16:37;;;;;;;13.45;2.28;;;12.30;99.90;;;;;;5031647;28;20029;-64
2022/11/02 02:19:25;;;;;;;6.78;2.00;;;12.40;99.90;;;;;;5017218;28;20042;-65
2022/11/02 02:22:12;;;;;;;8.77;2.03;;;12.40;99.90;;;;;;5027155;28;20088;-64
2022/11/02 02:25:00;;;;;;;8.30;2.42;;;12.30;99.90;;;;;;5021480;28;20150;-64
2022/11/02 02:27:50;;;;;;;8.65;1.90;;;12.20;99.90;;;;;;5047297;28;20049;-64
2022/11/02 02:30:16;;;;;;;6.70;1.73;;;12.00;99.90;;;;;;5027742;28;20038;-64
2022/11/02 02:33:04;;;;;;;6.68;2.20;;;12.10;99.90;;;;;;5019564;28;20401;-64
2022/11/02 02:35:52;;;;;;;7.50;1.65;;;12.00;99.90;;;;;;5021020;28;20049;-64
2022/11/02 02:38:27;;;;;;;5.13;1.60;;;12.00;99.90;;;;;;5021762;28;20041;-64
2022/11/02 02:41:12;;;;;;;9.73;2.15;;;12.00;99.90;;;;;;5021591;28;20113;-63
2022/11/02 02:43:43;;;;;;;11.35;2.42;;;12.00;99.90;;;;;;5023508;28;20071;-64
2022/11/02 02:46:18;;;;;;;7.47;1.70;;;12.00;99.90;;;;;;5021998;28;20710;-64
2022/11/02 02:48:45;;;;;;;8.60;1.60;;;12.00;99.90;;;;;;5027881;28;20037;-64
2022/11/02 02:51:17;;;;;;;11.55;1.80;;;12.00;99.90;;;;;;5026972;28;20026;-63
2022/11/02 02:53:47;;;;;;;8.07;1.70;;;12.00;99.90;;;;;;5023194;28;20088;-63
2022/11/02 02:56:16;;;;;;;4.68;1.30;;;12.00;99.90;;;;;;5028694;28;20049;-64
2022/11/02 02:58:56;;;;;;;6.90;1.58;;;11.80;99.90;;;;;;5028066;28;20045;-64
2022/11/02 03:01:23;;;;;;;8.02;1.30;;;11.90;99.90;;;;;;5020283;28;20450;-63
2022/11/02 03:03:50;;;;;;;8.07;1.52;;;11.90;99.90;;;;;;5021361;28;20141;-64
2022/11/02 03:06:35;;;;;;;5.30;1.23;;;11.80;99.90;;;;;;5015871;28;20125;-64
2022/11/02 03:09:06;;;;;;;9.55;1.23;;;11.80;99.90;;;;;;5022156;28;20091;-64
2022/11/02 03:11:33;;;;;;;5.43;1.25;;;11.70;99.90;;;;;;5025443;28;20399;-63
2022/11/02 03:14:08;;;;;;;4.20;1.52;;;11.60;99.90;;;;;;5023914;28;20044;-64
2022/11/02 03:16:46;;;;;;;5.97;1.35;;;11.60;99.90;;;;;;5023123;28;20037;-64
2022/11/02 03:19:30;;;;;;;7.03;1.20;;;11.60;99.90;;;;;;5020608;28;20053;-63
2022/11/02 03:22:05;;;;;;;3.80;1.20;;;11.50;99.90;;;;;;5019165;28;20116;-62
2022/11/02 03:24:41;;;;;;;5.82;1.20;;;11.40;99.90;;;;;;5019164;28;20172;-64
2022/11/02 03:27:34;;;;;;;8.65;1.30;;;11.40;99.90;;;;;;5014189;28;20494;-64
2022/11/02 03:30:18;;;;;;;5.03;1.58;;;11.50;99.90;;;;;;5021479;28;20441;-64
2022/11/02 03:33:14;;;;;;;7.30;1.48;;;11.40;99.90;;;;;;5011342;28;20033;-63
2022/11/02 03:35:53;;;;;;;6.15;1.30;;;11.40;99.90;;;;;;5020223;28;20041;-62
2022/11/02 03:38:40;;;;;;;6.00;1.60;;;11.30;99.90;;;;;;5023236;28;20038;-61
2022/11/02 03:41:07;;;;;;;8.52;1.50;;;11.30;99.90;;;;;;5019783;28;20072;-61
2022/11/02 03:43:35;;;;;;;6.32;1.38;;;11.30;99.90;;;;;;5015961;28;20117;-61
2022/11/02 03:46:05;;;;;;;7.88;1.63;;;11.30;99.90;;;;;;5025245;28;20452;-63
2022/11/02 03:48:38;;;;;;;6.60;1.30;;;11.20;99.90;;;;;;5027311;28;20377;-64
2022/11/02 03:51:09;;;;;;;7.22;1.55;;;11.30;99.90;;;;;;5026892;28;20045;-61
2022/11/02 03:53:50;;;;;;;7.65;1.30;;;11.30;99.90;;;;;;5017580;28;20095;-64
2022/11/02 03:56:25;;;;;;;9.20;1.73;;;11.30;99.90;;;;;;5028791;28;20445;-62
2022/11/02 03:58:51;;;;;;;8.38;1.65;;;11.30;99.90;;;;;;5028708;28;20033;-62
2022/11/02 04:01:19;;;;;;;8.65;1.60;;;11.30;99.90;;;;;;5022635;28;20508;-63
2022/11/02 04:03:46;;;;;;;6.72;1.30;;;11.20;99.90;;;;;;5025844;28;20049;-64
2022/11/02 04:06:12;;;;;;;7.75;1.60;;;11.20;99.90;;;;;;5022740;28;20037;-62
2022/11/02 04:08:46;;;;;;;8.77;1.90;;;11.20;99.90;;;;;;5021873;28;20041;-62
2022/11/02 04:16:41;;;;;;;8.75;1.92;;;11.10;99.90;;;;;;5026488;28;20641;-62
2022/11/02 04:19:27;;;;;;;9.48;1.92;;;11.10;99.90;;;;;;5025141;28;20082;-64
2022/11/02 04:27:22;;;;;;;8.00;1.60;;;11.10;99.90;;;;;;5026404;28;20488;-61
2022/11/02 04:29:48;;;;;;;6.82;1.60;;;11.10;99.90;;;;;;5024336;28;20037;-61
2022/11/02 04:33:31;;;;;;;9.43;1.85;;;11.20;99.90;;;;;;5026386;28;20053;-61
2022/11/02 04:35:00;;;;;;;6.30;1.90;;;11.10;99.90;;;;;;5017644;28;20042;-61
2022/11/02 04:40:11;;;;;;;9.02;1.55;;;11.10;99.90;;;;;;5025247;28;20136;-62
2022/11/02 04:42:36;;;;;;;9.30;2.10;;;11.10;99.90;;;;;;5020363;28;20041;-61
2022/11/02 04:45:02;;;;;;;11.85;2.38;;;11.20;99.90;;;;;;5017139;28;20045;-62
2022/11/02 04:47:28;;;;;;;8.43;2.00;;;11.20;99.90;;;;;;5017283;28;20038;-63
2022/11/02 04:49:54;;;;;;;13.80;2.10;;;11.10;99.90;;;;;;5028904;28;20056;-63
2022/11/02 04:52:19;;;;;;;9.88;2.10;;;11.20;99.90;;;;;;5028175;28;20233;-65
2022/11/02 04:54:45;;;;;;;10.40;1.80;;;11.20;99.90;;;;;;5025377;28;20045;-61
2022/11/02 04:57:10;;;;;;;10.00;2.33;;;11.20;99.90;;;;;;5028148;28;20120;-62
2022/11/02 04:59:36;;;;;;;10.45;2.20;;;11.20;99.90;;;;;;5026205;28;20072;-63
2022/11/02 05:02:02;;;;;;;8.65;2.15;;;11.20;99.90;;;;;;5019136;28;20029;-61
2022/11/02 05:04:27;;;;;;;8.30;1.77;;;11.20;99.90;;;;;;5017980;28;20034;-61
2022/11/02 05:06:53;;;;;;;7.95;1.85;;;11.20;99.90;;;;;;5017013;28;20041;-61
2022/11/02 05:09:18;;;;;;;13.27;2.13;;;11.20;99.90;;;;;;5014386;28;20120;-65
2022/11/02 05:11:44;;;;;;;12.13;2.00;;;11.20;99.90;;;;;;5023976;28;20092;-61
2022/11/02 05:14:10;;;;;;;10.95;2.05;;;11.20;99.90;;;;;;5024079;28;20041;-61
2022/11/02 05:16:35;;;;;;;11.32;2.20;;;11.30;99.90;;;;;;5029033;28;20045;-65
2022/11/02 05:19:01;;;;;;;14.32;2.08;;;11.30;99.90;;;;;;5025816;28;20046;-63
2022/11/02 05:21:26;;;;;;;9.82;2.53;;;11.30;99.90;;;;;;5020174;28;20191;-62
2022/11/02 05:23:52;;;;;;;12.73;3.05;;;11.30;99.90;;;;;;5025313;28;20037;-62
2022/11/02 05:26:18;;;;;;;15.02;2.90;;;11.30;99.90;;;;;;5030020;28;20446;-62
2022/11/02 05:28:44;;;;;;;13.25;2.30;;;11.30;99.90;;;;;;5030819;28;20439;-62
2022/11/02 05:31:09;;;;;;;8.63;2.13;;;11.30;99.90;;;;;;5030583;28;20065;-63
2022/11/02 05:33:35;;;;;;;11.63;2.72;;;11.30;99.90;;;;;;5030885;28;20490;-64
2022/11/02 05:36:01;;;;;;;10.77;2.45;;;11.30;99.90;;;;;;5029749;28;20038;-62
2022/11/02 05:38:28;;;;;;;10.52;2.60;;;11.30;99.90;;;;;;5030665;28;20106;-63
2022/11/02 05:40:56;;;;;;;13.02;2.67;;;11.20;99.90;;;;;;5029483;28;20110;-64
2022/11/02 05:43:21;;;;;;;9.98;2.90;;;11.30;99.90;;;;;;5025640;28;20277;-62
2022/11/02 05:45:55;;;;;;;16.30;2.97;;;11.20;99.90;;;;;;5022303;28;20550;-62
2022/11/02 05:48:22;;;;;;;13.52;3.10;;;11.20;99.90;;;;;;5029534;28;20088;-63
2022/11/02 05:50:48;;;;;;;14.77;3.25;;;11.20;99.90;;;;;;5047081;28;20081;-63
2022/11/02 05:53:14;;;;;;;16.15;2.67;;;11.30;99.90;;;;;;5026066;28;20042;-64
2022/11/02 05:55:40;;;;;;;13.90;2.67;;;11.20;99.90;;;;;;5029292;28;20048;-65
2022/11/02 05:58:06;;;;;;;13.75;2.88;;;11.20;99.90;;;;;;5018063;28;20038;-64
2022/11/02 06:00:34;;;;;;;11.70;2.90;;;11.20;99.90;;;;;;5023467;28;20503;-62
2022/11/02 06:03:00;;;;;;;11.60;2.40;;;11.20;99.90;;;;;;5028746;28;20056;-65
2022/11/02 06:05:25;;;;;;;13.65;2.50;;;11.20;99.90;;;;;;5025971;28;20399;-62
2022/11/02 06:07:51;;;;;;;13.25;2.90;;;11.20;99.90;;;;;;5020331;28;20033;-62
2022/11/02 06:10:17;;;;;;;13.90;2.65;;;11.20;99.90;;;;;;5018205;28;20115;-62
2022/11/02 06:12:43;;;;;;;13.63;2.85;;;11.20;99.90;;;;;;5016489;28;20037;-64
2022/11/02 06:15:10;;;;;;;11.18;2.60;;;11.20;99.90;;;;;;5024033;28;20037;-63
2022/11/02 06:17:37;;;;;;;11.65;2.60;;;11.20;99.90;;;;;;5020600;28;20053;-63
2022/11/02 06:20:03;;;;;;;14.35;2.95;;;11.20;99.90;;;;;;5025030;28;20037;-63
2022/11/02 06:22:29;;;;;;;12.77;2.55;;;11.20;99.90;;;;;;5026616;28;20034;-64
2022/11/02 06:24:54;;;;;;;14.40;2.65;;;11.20;99.90;;;;;;5024483;28;20094;-62
2022/11/02 06:27:20;;;;;;;9.52;2.63;;;11.20;99.90;;;;;;5028467;28;20444;-62
2022/11/02 06:29:45;;;;;;;12.68;2.60;;;11.20;99.90;;;;;;5023935;28;20124;-62
2022/11/02 06:32:11;;;;;;;11.68;2.75;;;11.10;99.90;;;;;;5030316;28;20396;-64
2022/11/02 06:34:36;;;;;;;15.88;3.25;;;11.20;99.90;;;;;;5029476;28;20049;-63
2022/11/02 06:37:02;;;;;;;11.95;2.40;;;11.20;99.90;;;;;;5027100;28;20523;-62
2022/11/02 06:39:28;;;;;;;16.42;2.90;;;11.10;99.90;;;;;;5025671;28;20036;-62
2022/11/02 06:41:53;;;;;;;13.02;2.80;;;11.10;99.90;;;;;;5028324;28;20065;-65
2022/11/02 06:44:19;;;;;;;13.07;2.78;;;11.10;99.90;;;;;;5026056;28;20446;-62
2022/11/02 06:46:44;;;;;;;13.45;2.40;;;11.10;99.90;;;;;;5025664;28;20037;-63
2022/11/02 06:49:10;;;;;;;13.40;3.10;;;11.10;99.90;;;;;;5027099;28;20037;-63
2022/11/02 06:51:36;;;;;;;14.52;2.45;;;11.00;99.90;;;;;;5031303;28;20034;-66
2022/11/02 06:54:01;;;;;;;17.20;3.22;;;11.00;99.90;;;;;;5024576;28;20049;-65
2022/11/02 06:56:27;;;;;;;14.55;3.10;;;11.00;99.90;;;;;;5024806;28;20393;-62
2022/11/02 06:58:52;;;;;;;10.80;2.50;;;11.00;99.90;;;;;;5023219;28;20038;-63
2022/11/02 07:01:18;;;;;;;14.20;2.75;;;11.00;99.90;;;;;;5025107;28;20525;-63
2022/11/02 07:03:44;;;;;;;16.90;2.60;;;11.00;99.90;;;;;;5025845;28;20093;-65
2022/11/02 07:06:09;;;;;;;17.60;3.33;;;10.90;99.90;;;;;;5014658;28;20152;-62
2022/11/02 07:08:35;;;;;;;15.05;2.50;;;11.00;99.90;;;;;;5017620;28;20410;-64
2022/11/02 07:11:01;;;;;;;16.48;3.10;;;11.00;99.90;;;;;;5031637;28;20132;-64
2022/11/02 07:13:26;;;;;;;13.05;3.33;;;11.10;99.90;;;;;;5034024;28;20463;-64
2022/11/02 07:15:53;;;;;;;16.42;2.90;;;11.10;99.90;;;;;;5023081;28;20370;-64
2022/11/02 07:18:19;;;;;;;16.63;2.80;;;11.20;99.90;;;;;;5027376;28;20164;-64
2022/11/02 07:20:44;;;;;;;16.60;3.30;;;11.10;99.90;;;;;;5020324;28;20120;-65
2022/11/02 07:23:10;;;;;;;13.45;2.22;;;11.20;99.90;;;;;;5020881;28;20041;-64
2022/11/02 07:25:36;;;;;;;11.70;2.58;;;11.20;99.90;;;;;;5020790;28;20500;-63
2022/11/02 07:28:02;;;;;;;15.00;2.75;;;11.20;99.90;;;;;;5023390;28;20069;-64
2022/11/02 07:30:29;;;;;;;15.30;2.63;;;11.30;99.90;;;;;;5030255;28;20129;-64
2022/11/02 07:32:55;;;;;;;10.85;2.60;;;11.20;99.90;;;;;;5028256;28;20045;-64
2022/11/02 07:35:21;;;;;;;16.80;2.63;;;11.30;99.90;;;;;;5024150;28;20048;-64
2022/11/02 07:37:57;;;;;;;10.63;2.40;;;11.30;99.90;;;;;;5027541;28;20492;-63
2022/11/02 07:40:22;;;;;;;15.30;2.40;;;11.30;99.90;;;;;;5023955;28;20405;-63
2022/11/02 07:42:48;;;;;;;14.32;2.53;;;11.30;99.90;;;;;;5029289;28;20033;-63
2022/11/02 07:45:14;;;;;;;11.95;2.50;;;11.40;99.90;;;;;;5024722;28;20065;-63
2022/11/02 07:47:44;;;;;;;15.77;2.88;;;11.50;99.90;;;;;;5027005;28;20051;-63
2022/11/02 07:50:11;;;;;;;9.52;2.15;;;11.40;99.90;;;;;;5029399;28;20091;-63
2022/11/02 07:52:46;;;;;;;16.80;2.08;;;11.50;99.90;;;;;;5024518;28;20052;-63
2022/11/02 07:55:14;;;;;;;13.82;2.55;;;11.50;99.90;;;;;;5020955;28;20190;-63
2022/11/02 07:57:39;;;;;;;10.75;2.22;;;11.50;99.90;;;;;;5024328;28;20033;-63
2022/11/02 08:00:06;;;;;;;17.25;2.75;;;11.50;99.90;;;;;;5022471;28;20033;-63
2022/11/02 08:02:35;;;;;;;12.02;2.15;;;11.50;99.90;;;;;;5025876;28;20120;-63
2022/11/02 08:05:00;;;;;;;10.07;1.85;;;11.50;99.90;;;;;;5021892;28;20121;-64
2022/11/02 08:07:26;;;;;;;11.82;2.20;;;11.50;99.90;;;;;;5022920;28;20117;-64
2022/11/02 08:09:51;;;;;;;8.02;1.92;;;11.50;99.90;;;;;;5023476;28;20503;-63
2022/11/02 08:12:17;;;;;;;10.00;2.03;;;11.40;99.90;;;;;;5029102;28;20069;-63
2022/11/02 08:14:43;;;;;;;10.73;2.33;;;11.50;99.90;;;;;;5025495;28;20536;-63
2022/11/02 08:17:08;;;;;;;9.30;1.90;;;11.40;99.90;;;;;;5021183;28;20420;-63
2022/11/02 08:19:34;;;;;;;11.05;1.98;;;11.40;99.90;;;;;;5025216;28;20079;-64
2022/11/02 08:21:59;;;;;;;13.30;2.60;;;11.50;99.90;;;;;;5025277;28;20532;-64
2022/11/02 08:24:25;;;;;;;11.00;1.98;;;11.50;99.90;;;;;;5017496;28;20092;-64
2022/11/02 08:26:50;;;;;;;11.20;1.95;;;11.50;99.90;;;;;;5024517;28;20096;-63
2022/11/02 08:29:16;;;;;;;9.90;2.08;;;11.60;99.90;;;;;;5021521;28;20511;-64
2022/11/02 08:31:41;;;;;;;7.97;2.13;;;11.60;99.90;;;;;;5026417;28;20037;-63
2022/11/02 08:34:08;;;;;;;13.80;2.00;;;11.60;99.90;;;;;;5020804;28;20538;-64
2022/11/02 08:36:37;;;;;;;11.75;1.70;;;11.60;99.90;;;;;;5022153;28;20162;-63
2022/11/02 08:39:03;;;;;;;11.07;1.65;;;11.60;99.90;;;;;;5016603;28;20049;-63
2022/11/02 08:41:28;;;;;;;8.40;2.08;;;11.50;99.90;;;;;;5019196;28;20042;-64
2022/11/02 08:43:55;;;;;;;11.15;2.13;;;11.60;99.90;;;;;;5026881;28;20060;-63
2022/11/02 08:46:22;;;;;;;8.57;1.80;;;11.60;99.90;;;;;;5014458;28;20480;-63
2022/11/02 08:48:47;;;;;;;13.63;1.73;;;11.60;99.90;;;;;;5019768;28;20080;-63
2022/11/02 08:51:13;;;;;;;9.10;1.80;;;11.60;99.90;;;;;;5004595;28;20030;-64
2022/11/02 08:53:39;;;;;;;18.08;2.28;;;11.60;99.90;;;;;;5020521;28;20404;-63
2022/11/02 08:56:05;;;;;;;8.80;1.63;;;11.60;99.90;;;;;;5022175;28;20048;-63
2022/11/02 08:58:31;;;;;;;8.38;1.70;;;11.70;99.90;;;;;;5014990;28;20086;-63
2022/11/02 09:00:56;;;;;;;8.02;2.00;;;11.70;99.90;;;;;;5015552;28;20151;-63
2022/11/02 09:03:23;;;;;;;13.60;2.85;;;11.70;99.90;;;;;;5016585;28;20033;-64
2022/11/02 09:05:49;;;;;;;11.68;1.90;;;11.70;99.90;;;;;;5025779;28;20243;-63
2022/11/02 09:08:18;;;;;;;7.40;1.80;;;11.80;99.90;;;;;;5025687;28;20435;-63
2022/11/02 09:10:51;;;;;;;8.57;2.42;;;11.80;99.90;;;;;;5021577;28;20042;-63
2022/11/02 09:13:20;;;;;;;10.80;2.22;;;11.90;99.90;;;;;;5019470;28;20488;-63
2022/11/02 09:15:49;;;;;;;9.88;1.50;;;11.90;99.90;;;;;;5011383;28;20037;-64
2022/11/02 09:18:14;;;;;;;10.73;1.70;;;12.00;99.90;;;;;;5021508;28;20037;-62
2022/11/02 09:20:40;;;;;;;8.82;1.73;;;11.90;99.90;;;;;;5024479;28;20381;-64
2022/11/02 09:23:06;;;;;;;7.10;1.40;;;12.00;99.90;;;;;;5016964;28;20139;-63
2022/11/02 09:25:32;;;;;;;9.93;1.95;;;11.90;99.90;;;;;;5014738;28;20520;-64
2022/11/02 09:27:58;;;;;;;12.32;2.20;;;12.00;99.90;;;;;;5011863;28;20492;-63
2022/11/02 09:30:25;;;;;;;7.43;1.80;;;12.00;99.90;;;;;;5021064;28;20433;-64
2022/11/02 09:33:02;;;;;;;11.98;2.05;;;11.90;99.90;;;;;;5019564;28;20085;-62
2022/11/02 09:35:30;;;;;;;7.25;1.77;;;12.00;99.90;;;;;;5020089;28;20050;-62
2022/11/02 09:37:56;;;;;;;10.60;1.90;;;11.70;99.90;;;;;;5022406;28;20120;-64
2022/11/02 09:40:25;;;;;;;13.68;2.08;;;12.00;99.90;;;;;;5022381;28;20529;-62
2022/11/02 09:43:16;;;;;;;10.13;2.30;;;12.10;99.90;;;;;;5021380;28;20041;-63
2022/11/02 09:45:57;;;;;;;10.95;1.58;;;12.10;99.90;;;;;;5007779;28;20041;-63
2022/11/02 09:48:47;;;;;;;19.13;2.05;;;12.10;99.90;;;;;;5019790;28;20527;-64
2022/11/02 09:51:31;;;;;;;11.82;2.58;;;12.20;99.90;;;;;;5012859;28;20054;-63
2022/11/02 09:54:31;;;;;;;7.90;1.80;;;12.20;99.90;;;;;;5020172;28;20052;-63
2022/11/02 09:57:04;;;;;;;12.10;2.28;;;12.30;99.90;;;;;;5024541;28;20080;-62
2022/11/02 09:59:29;;;;;;;10.98;2.25;;;12.40;99.90;;;;;;5023822;28;20396;-62
2022/11/02 10:02:01;;;;;;;8.60;1.70;;;12.50;99.90;;;;;;5024908;28;20041;-63
2022/11/02 10:04:45;;;;;;;13.73;2.10;;;12.50;99.90;;;;;;5019854;28;20504;-63
2022/11/02 10:07:44;;;;;;;11.35;1.80;;;12.50;99.90;;;;;;5035145;28;20381;-63
2022/11/02 10:10:19;;;;;;;14.15;2.42;;;12.50;99.90;;;;;;5022534;28;20038;-64
2022/11/02 10:13:13;;;;;;;10.50;2.17;;;12.50;99.90;;;;;;5023615;28;20431;-64
2022/11/02 10:15:39;;;;;;;13.98;2.13;;;12.50;99.90;;;;;;5020489;28;20041;-64
2022/11/02 10:18:12;;;;;;;9.52;1.95;;;12.50;99.90;;;;;;5022006;28;20608;-64
2022/11/02 10:20:44;;;;;;;15.38;2.10;;;12.60;99.90;;;;;;5021048;28;20631;-64
2022/11/02 10:23:20;;;;;;;;;;;12.60;99.90;;;;;;5019793;28;20052;-64
2022/11/02 10:25:48;;;;;;;12.30;2.00;;;12.60;99.90;;;;;;5016581;28;20008;-62
2022/11/02 10:28:17;;;;;;;9.43;1.85;;;12.60;99.90;;;;;;5023751;28;20033;-63
2022/11/02 10:30:43;;;;;;;8.52;1.92;;;12.60;99.90;;;;;;5031379;28;20037;-64
2022/11/02 10:33:16;;;;;;;14.65;2.22;;;12.70;99.90;;;;;;5028412;28;20483;-64
2022/11/02 10:36:20;;;;;;;11.07;2.00;;;12.80;99.90;;;;;;5025899;28;20049;-64
2022/11/02 10:39:10;;;;;;;4.97;1.45;;;12.90;99.90;;;;;;5022532;28;20077;-65
2022/11/02 10:41:45;;;;;;;8.00;1.92;;;13.00;99.90;;;;;;5024287;28;20472;-63
2022/11/02 10:44:31;;;;;;;10.18;2.28;;;13.00;99.90;;;;;;5029296;28;20642;-64
2022/11/02 10:47:08;;;;;;;11.32;2.08;;;13.10;99.90;;;;;;5031229;28;20046;-64
2022/11/02 10:50:01;;;;;;;10.40;2.83;;;13.10;99.90;;;;;;5025613;28;20116;-64
2022/11/02 10:52:35;;;;;;;8.95;1.95;;;13.20;99.90;;;;;;5023924;28;20488;-65
2022/11/02 10:55:07;;;;;;;9.68;2.20;;;13.20;99.90;;;;;;5018595;28;20168;-64
2022/11/02 10:57:36;;;;;;;;;;;13.20;99.90;;;;;;5029772;28;20037;-65
2022/11/02 11:00:29;;;;;;;11.15;1.55;;;13.30;99.90;;;;;;5024773;28;19924;-64
2022/11/02 11:03:21;;;;;;;8.25;1.92;;;13.30;99.90;;;;;;5025887;28;20099;-62
2022/11/02 11:05:49;;;;;;;14.80;2.25;;;13.30;99.90;;;;;;5019940;28;20053;-62
2022/11/02 11:08:39;;;;;;;9.00;2.15;;;13.30;99.90;;;;;;5018409;28;20045;-64
2022/11/02 11:11:09;;;;;;;11.18;2.00;;;13.30;99.90;;;;;;5028502;28;20041;-61
2022/11/02 11:13:35;;;;;;;13.88;2.22;;;13.30;99.90;;;;;;5013458;28;20697;-64
2022/11/02 11:16:02;;;;;;;6.55;1.45;;;13.30;99.90;;;;;;5022991;28;20041;-62
2022/11/02 11:18:28;;;;;;;12.27;2.10;;;13.30;99.90;;;;;;5025571;28;20048;-64
2022/11/02 11:20:55;;;;;;;9.38;1.50;;;13.30;99.90;;;;;;5020396;28;20041;-65
2022/11/02 11:23:21;;;;;;;8.20;1.50;;;13.30;99.90;;;;;;5028174;28;20034;-65
2022/11/02 11:26:05;;;;;;;11.10;2.17;;;13.30;99.90;;;;;;5017759;28;20117;-62
2022/11/02 11:28:39;;;;;;;9.05;2.03;;;13.20;99.90;;;;;;5022844;28;20044;-65
2022/11/02 11:31:07;;;;;;;11.13;1.67;;;13.20;99.90;;;;;;5018818;28;20041;-64
2022/11/02 11:34:00;;;;;;;11.45;1.60;;;13.20;99.90;;;;;;5027000;28;20080;-64
2022/11/02 11:36:32;;;;;;;11.38;2.08;;;13.20;99.90;;;;;;5028633;28;20324;-64
2022/11/02 11:39:00;;;;;;;12.02;1.90;;;13.30;99.90;;;;;;5018083;28;20076;-64
2022/11/02 11:41:28;;;;;;;8.27;1.50;;;13.30;99.90;;;;;;5018399;28;20041;-64
2022/11/02 11:43:55;;;;;;;6.00;1.40;;;13.30;99.90;;;;;;5027284;28;20049;-64
2022/11/02 11:46:20;;;;;;;10.25;1.60;;;13.40;99.90;;;;;;5025430;28;20075;-64
2022/11/02 11:48:54;;;;;;;11.15;1.65;;;13.40;99.90;;;;;;5023712;28;20556;-63
2022/11/02 11:51:23;;;;;;;18.63;2.70;;;13.50;99.90;;;;;;5020516;28;20045;-64
2022/11/02 11:54:16;;;;;;;10.35;1.77;;;13.60;99.90;;;;;;5026738;28;20052;-64
2022/11/02 11:56:42;;;;;;;15.73;1.85;;;13.80;99.90;;;;;;5025371;28;20049;-62
2022/11/02 11:59:44;;;;;;;9.00;1.45;;;13.80;99.90;;;;;;5027128;28;20438;-64
2022/11/02 12:02:27;;;;;;;9.57;1.60;;;14.00;99.90;;;;;;5007866;28;20236;-62
2022/11/02 12:05:00;;;;;;;;;;;14.20;99.90;;;;;;5027349;28;20049;-63
2022/11/02 12:07:53;;;;;;;10.35;1.83;;;14.40;99.90;;;;;;5027247;28;19964;-62
2022/11/02 12:10:37;;;;;;;11.00;1.70;;;14.40;99.90;;;;;;5022407;28;20048;-63
2022/11/02 12:13:12;;;;;;;6.88;1.70;;;14.50;99.90;;;;;;5027174;28;20041;-62
2022/11/02 12:15:40;;;;;;;7.82;1.63;;;14.60;99.90;;;;;;5027447;28;20041;-63
2022/11/02 12:18:38;;;;;;;6.97;1.70;;;14.60;99.90;;;;;;5023301;28;20128;-63
2022/11/02 12:21:27;;;;;;;7.55;1.45;;;14.60;99.90;;;;;;4991162;28;20049;-63
2022/11/02 12:24:05;;;;;;;7.07;1.58;;;14.50;99.90;;;;;;5025048;28;20038;-63
2022/11/02 12:27:02;;;;;;;7.20;1.60;;;14.30;99.90;;;;;;5025775;28;20397;-65
2022/11/02 12:29:57;;;;;;;10.13;2.13;;;14.10;99.90;;;;;;5028789;28;20042;-61
2022/11/02 12:32:53;;;;;;;8.60;1.45;;;13.90;99.90;;;;;;5047570;28;20489;-61
2022/11/02 12:35:54;;;;;;;8.32;1.50;;;13.80;99.90;;;;;;5028987;28;20038;-63
2022/11/02 12:38:25;;;;;;;7.53;1.90;;;13.80;99.90;;;;;;4936738;29;20525;-62
2022/11/02 12:41:11;;;;;;;9.05;1.75;;;13.80;99.90;;;;;;5010902;28;20045;-61
2022/11/02 12:43:43;;;;;;;8.35;1.60;;;13.80;99.90;;;;;;5032483;28;20077;-62
2022/11/02 12:46:30;;;;;;;6.40;1.63;;;13.80;99.90;;;;;;5024893;28;20033;-63
2022/11/02 12:49:20;;;;;;;8.45;1.65;;;13.70;99.90;;;;;;5017573;28;20128;-63
2022/11/02 12:51:54;;;;;;;13.95;1.88;;;13.80;99.90;;;;;;5025456;28;20096;-65
2022/11/02 12:54:23;;;;;;;7.40;1.48;;;13.90;99.90;;;;;;5021627;28;20117;-63
2022/11/02 12:56:51;;;;;;;9.77;1.63;;;14.10;99.90;;;;;;5029684;28;20464;-62
2022/11/02 12:59:26;;;;;;;10.95;1.73;;;14.20;99.90;;;;;;5029203;28;20440;-63
2022/11/02 13:02:02;;;;;;;9.48;1.85;;;14.40;99.90;;;;;;5027099;28;20059;-63
2022/11/02 13:04:32;;;;;;;8.52;1.77;;;14.40;99.90;;;;;;5018418;28;20446;-66
2022/11/02 13:07:05;;;;;;;9.25;1.95;;;14.40;99.90;;;;;;5028498;28;20503;-63
2022/11/02 13:09:37;;;;;;;8.63;2.08;;;14.50;99.90;;;;;;5033332;28;20381;-63
2022/11/02 13:12:06;;;;;;;9.05;1.98;;;14.50;99.90;;;;;;5023131;28;20124;-63
2022/11/02 13:14:39;;;;;;;9.80;1.75;;;14.50;99.90;;;;;;5024634;28;20038;-63
2022/11/02 13:17:15;;;;;;;11.25;1.98;;;14.50;99.90;;;;;;5025610;28;20048;-63